createdAt,value
2018-04-13T00:02:28.286Z,54.90
2018-04-13T00:04:56.676Z,55.10
2018-04-13T00:07:25.278Z,55.00
2018-04-13T00:09:54.435Z,56.60
2018-04-13T00:12:22.794Z,56.50
2018-04-13T00:14:51.483Z,57.00
2018-04-13T00:17:19.861Z,56.90
2018-04-13T00:19:49.071Z,56.90
2018-04-13T00:22:17.466Z,56.80
2018-04-13T00:24:45.875Z,56.30
2018-04-13T00:27:14.618Z,56.10
2018-04-13T00:29:42.998Z,56.40
2018-04-13T00:32:11.467Z,57.00
2018-04-13T00:34:39.861Z,58.00
2018-04-13T00:37:08.254Z,59.10
2018-04-13T00:39:36.633Z,58.30
2018-04-13T00:42:05.021Z,59.20
2018-04-13T00:44:33.392Z,58.30
2018-04-13T00:47:02.493Z,58.50
2018-04-13T00:49:31.638Z,58.40
2018-04-13T00:52:00.042Z,57.60
2018-04-13T00:54:28.405Z,56.60
2018-04-13T00:56:57.555Z,57.50
2018-04-13T00:59:26.724Z,57.60
2018-04-13T01:01:55.274Z,57.60
2018-04-13T01:04:23.646Z,57.30
2018-04-13T01:06:52.002Z,57.20
2018-04-13T01:09:20.394Z,57.30
2018-04-13T01:11:49.242Z,57.20
2018-04-13T01:14:18.393Z,56.60
2018-04-13T01:16:46.813Z,56.50
2018-04-13T01:19:15.963Z,56.60
2018-04-13T01:21:44.334Z,55.90
2018-04-13T01:24:13.361Z,56.60
2018-04-13T01:26:41.738Z,56.20
2018-04-13T01:29:10.106Z,56.40
2018-04-13T01:31:38.508Z,56.80
2018-04-13T01:34:06.905Z,57.00
2018-04-13T01:36:36.058Z,57.30
2018-04-13T01:39:04.422Z,57.20
2018-04-13T01:41:32.836Z,56.80
2018-04-13T01:44:01.193Z,57.00
2018-04-13T01:46:29.913Z,56.90
2018-04-13T01:48:59.563Z,57.00
2018-04-13T01:51:27.966Z,56.90
2018-04-13T01:53:56.391Z,58.10
2018-04-13T01:56:25.571Z,58.30
2018-04-13T01:58:54.702Z,57.50
2018-04-13T02:01:23.073Z,57.80
2018-04-13T02:03:51.586Z,57.60
2018-04-13T02:06:20.201Z,57.50
2018-04-13T02:08:48.562Z,57.50
2018-04-13T02:11:16.981Z,58.10
2018-04-13T02:13:46.121Z,58.00
2018-04-13T02:16:15.258Z,57.20
2018-04-13T02:18:44.408Z,57.10
2018-04-13T02:21:12.779Z,57.10
2018-04-13T02:23:41.166Z,57.70
2018-04-13T02:26:09.564Z,57.70
2018-04-13T02:28:37.961Z,57.40
2018-04-13T02:31:06.414Z,57.60
2018-04-13T02:33:34.811Z,57.30
2018-04-13T02:36:03.192Z,57.80
2018-04-13T02:38:31.663Z,57.40
2018-04-13T02:41:00.210Z,57.70
2018-04-13T02:43:28.654Z,57.60
2018-04-13T02:45:57.850Z,58.10
2018-04-13T02:48:26.989Z,57.40
2018-04-13T02:50:55.382Z,57.40
2018-04-13T02:53:23.738Z,57.70
2018-04-13T02:55:52.149Z,58.20
2018-04-13T02:58:20.497Z,57.90
2018-04-13T03:00:48.885Z,58.70
2018-04-13T03:03:17.270Z,58.80
2018-04-13T03:05:45.671Z,59.70
2018-04-13T03:08:14.040Z,60.10
2018-04-13T03:10:42.394Z,60.30
2018-04-13T03:13:10.778Z,60.50
2018-04-13T03:15:39.183Z,61.10
2018-04-13T03:18:07.562Z,60.50
2018-04-13T03:20:35.961Z,60.50
2018-04-13T03:23:05.379Z,60.30
2018-04-13T03:25:33.775Z,60.20
2018-04-13T03:28:02.154Z,60.50
2018-04-13T03:30:30.544Z,60.70
2018-04-13T03:32:58.907Z,61.00
2018-04-13T03:35:27.546Z,60.90
2018-04-13T03:37:56.695Z,60.70
2018-04-13T03:40:25.065Z,61.30
2018-04-13T03:42:53.445Z,60.80
2018-04-13T03:45:21.818Z,60.30
2018-04-13T03:47:50.201Z,61.40
2018-04-13T03:50:18.562Z,61.10
2018-04-13T03:52:47.042Z,61.00
2018-04-13T03:55:15.543Z,61.90
2018-04-13T03:57:44.082Z,62.20
2018-04-13T04:00:13.255Z,61.20
2018-04-13T04:02:41.651Z,61.20
2018-04-13T04:05:10.803Z,61.50
2018-04-13T04:07:39.214Z,61.40
2018-04-13T04:10:08.330Z,62.10
2018-04-13T04:12:36.694Z,61.40
2018-04-13T04:15:05.856Z,62.90
2018-04-13T04:17:34.222Z,62.80
2018-04-13T04:20:14.609Z,62.60
2018-04-13T04:22:54.702Z,61.60
2018-04-13T04:38:52.025Z,60.40
2018-04-13T04:41:21.166Z,62.20
2018-04-13T04:43:49.579Z,62.40
2018-04-13T04:46:17.943Z,61.70
2018-04-13T04:48:46.340Z,61.10
2018-04-13T04:51:14.817Z,61.20
2018-04-13T04:53:43.199Z,61.20
2018-04-13T04:56:11.748Z,61.00
2018-04-13T04:58:40.147Z,61.20
2018-04-13T05:01:08.521Z,61.00
2018-04-13T05:03:37.254Z,60.80
2018-04-13T05:06:05.696Z,61.00
2018-04-13T05:08:34.067Z,60.80
2018-04-13T05:11:02.453Z,60.90
2018-04-13T05:13:30.818Z,61.00
2018-04-13T05:15:59.211Z,61.00
2018-04-13T05:18:27.574Z,61.00
2018-04-13T05:20:55.968Z,61.00
2018-04-13T05:23:24.358Z,60.90
2018-04-13T05:25:53.619Z,62.50
2018-04-13T05:28:22.006Z,62.40
2018-04-13T05:30:50.395Z,62.40
2018-04-13T05:33:18.775Z,62.00
2018-04-13T05:35:47.153Z,62.60
2018-04-13T05:38:15.768Z,62.40
2018-04-13T05:40:44.170Z,63.00
2018-04-13T05:43:12.771Z,63.20
2018-04-13T05:45:41.542Z,63.20
2018-04-13T05:48:09.937Z,63.10
2018-04-13T05:50:38.286Z,64.00
2018-04-13T05:53:06.658Z,64.60
2018-04-13T05:55:36.134Z,64.90
2018-04-13T05:58:05.328Z,65.70
2018-04-13T06:00:34.933Z,65.40
2018-04-13T06:03:04.155Z,65.70
2018-04-13T06:05:32.526Z,65.70
2018-04-13T06:08:00.910Z,65.80
2018-04-13T06:10:29.533Z,66.40
2018-04-13T06:12:57.906Z,65.70
2018-04-13T06:15:26.303Z,65.90
2018-04-13T06:17:55.846Z,65.20
2018-04-13T06:20:24.614Z,65.20
2018-04-13T06:22:53.830Z,64.00
2018-04-13T06:25:23.006Z,63.50
2018-04-13T06:27:51.447Z,63.50
2018-04-13T06:30:20.682Z,63.50
2018-04-13T06:32:49.711Z,62.90
2018-04-13T06:35:18.082Z,62.20
2018-04-13T06:37:46.461Z,62.80
2018-04-13T06:40:19.944Z,62.10
2018-04-13T06:42:49.367Z,61.60
2018-04-13T06:45:17.883Z,61.50
2018-04-13T06:47:46.266Z,61.70
2018-04-13T06:50:14.629Z,61.30
2018-04-13T06:52:43.008Z,61.30
2018-04-13T06:55:11.533Z,61.30
2018-04-13T06:57:39.932Z,60.80
2018-04-13T07:00:08.299Z,60.40
2018-04-13T07:02:37.534Z,60.30
2018-04-13T07:05:05.919Z,60.30
2018-04-13T07:07:34.303Z,60.50
2018-04-13T07:10:02.675Z,59.80
2018-04-13T07:12:31.062Z,60.60
2018-04-13T07:14:59.472Z,60.30
2018-04-13T07:17:27.905Z,59.90
2018-04-13T07:19:56.301Z,60.00
2018-04-13T07:22:24.682Z,60.80
2018-04-13T07:24:53.049Z,60.30
2018-04-13T07:27:21.463Z,60.10
2018-04-13T07:29:49.836Z,60.10
2018-04-13T07:32:18.636Z,60.10
2018-04-13T07:34:46.645Z,59.70
2018-04-13T07:37:15.466Z,60.10
2018-04-13T07:39:44.364Z,60.00
2018-04-13T07:42:12.778Z,59.70
2018-04-13T07:44:41.163Z,59.60
2018-04-13T07:47:09.595Z,59.20
2018-04-13T07:49:37.974Z,60.20
2018-04-13T07:52:06.376Z,60.10
2018-04-13T07:54:35.592Z,60.20
2018-04-13T07:57:03.999Z,60.10
2018-04-13T07:59:32.376Z,60.20
2018-04-13T08:02:00.979Z,61.00
2018-04-13T08:04:29.431Z,61.50
2018-04-13T08:06:57.823Z,61.60
2018-04-13T08:09:26.373Z,61.50
2018-04-13T08:11:55.643Z,61.80
2018-04-13T08:14:24.080Z,61.60
2018-04-13T08:16:52.570Z,62.00
2018-04-13T08:19:20.949Z,62.10
2018-04-13T08:21:49.332Z,61.40
2018-04-13T08:24:17.734Z,61.90
2018-04-13T08:26:46.102Z,62.30
2018-04-13T08:29:14.510Z,62.20
2018-04-13T08:31:43.846Z,62.10
2018-04-13T08:34:12.326Z,62.10
2018-04-13T08:36:40.615Z,62.90
2018-04-13T08:39:09.166Z,63.00
2018-04-13T08:41:37.557Z,63.80
2018-04-13T08:44:05.949Z,62.40
2018-04-13T08:46:34.323Z,62.60
2018-04-13T08:49:03.000Z,62.80
2018-04-13T08:51:31.224Z,62.60
2018-04-13T08:53:59.655Z,62.60
2018-04-13T08:56:28.766Z,62.80
2018-04-13T08:58:57.192Z,62.10
2018-04-13T09:01:26.335Z,62.30
2018-04-13T09:03:54.741Z,62.20
2018-04-13T09:06:23.164Z,62.50
2018-04-13T09:08:51.504Z,62.60
2018-04-13T09:11:19.920Z,63.10
2018-04-13T09:13:48.375Z,62.60
2018-04-13T09:16:17.595Z,63.20
2018-04-13T09:18:46.345Z,63.20
2018-04-13T09:21:14.802Z,63.40
2018-04-13T09:23:44.022Z,62.70
2018-04-13T09:26:12.398Z,62.60
2018-04-13T09:28:40.790Z,62.60
2018-04-13T09:31:09.918Z,63.60
2018-04-13T09:33:38.316Z,63.50
2018-04-13T09:36:06.683Z,63.80
2018-04-13T09:38:35.072Z,63.90
2018-04-13T09:41:03.458Z,64.20
2018-04-13T09:43:31.927Z,64.70
2018-04-13T09:46:00.356Z,65.10
2018-04-13T09:48:28.759Z,64.50
2018-04-13T09:50:57.201Z,65.40
2018-04-13T09:53:25.610Z,65.00
2018-04-13T09:55:54.008Z,65.20
2018-04-13T09:58:22.411Z,64.50
2018-04-13T10:00:56.483Z,64.40
2018-04-13T10:03:24.885Z,64.10
2018-04-13T10:05:53.271Z,64.50
2018-04-13T10:08:21.667Z,64.00
2018-04-13T10:10:50.042Z,64.10
2018-04-13T10:13:18.398Z,64.10
2018-04-13T10:15:47.023Z,63.80
2018-04-13T10:18:15.495Z,63.00
2018-04-13T10:20:43.854Z,63.10
2018-04-13T10:23:13.187Z,62.90
2018-04-13T10:25:41.552Z,62.90
2018-04-13T10:28:12.418Z,63.00
2018-04-13T10:30:40.776Z,62.50
2018-04-13T10:33:09.163Z,63.20
2018-04-13T10:35:38.440Z,63.80
2018-04-13T10:38:06.837Z,63.80
2018-04-13T10:40:36.003Z,64.30
2018-04-13T10:43:04.818Z,64.20
2018-04-13T10:45:33.155Z,63.60
2018-04-13T10:48:02.211Z,63.60
2018-04-13T10:50:30.592Z,63.20
2018-04-13T10:52:58.958Z,63.50
2018-04-13T10:55:28.105Z,63.20
2018-04-13T10:57:56.587Z,63.10
2018-04-13T11:00:25.006Z,63.20
2018-04-13T11:02:54.155Z,63.40
2018-04-13T11:05:22.768Z,63.30
2018-04-13T11:07:51.171Z,63.50
2018-04-13T11:10:19.680Z,63.00
2018-04-13T11:12:48.210Z,63.20
2018-04-13T11:15:16.616Z,62.90
2018-04-13T11:17:45.117Z,63.10
2018-04-13T11:20:13.486Z,62.90
2018-04-13T11:22:42.152Z,63.40
2018-04-13T11:25:11.310Z,63.70
2018-04-13T11:27:39.774Z,63.70
2018-04-13T11:30:08.164Z,64.00
2018-04-13T11:32:37.298Z,64.30
2018-04-13T11:35:06.452Z,64.30
2018-04-13T11:37:34.836Z,64.20
2018-04-13T11:40:03.243Z,64.20
2018-04-13T11:42:31.598Z,64.20
2018-04-13T11:45:00.606Z,64.60
2018-04-13T11:47:29.737Z,64.40
2018-04-13T11:49:58.674Z,65.00
2018-04-13T11:52:27.856Z,64.20
2018-04-13T11:54:56.229Z,64.20
2018-04-13T11:57:24.586Z,64.10
2018-04-13T11:59:53.242Z,64.10
2018-04-13T12:02:22.387Z,64.50
2018-04-13T12:04:50.770Z,64.40
2018-04-13T12:07:19.152Z,64.60
2018-04-13T12:09:49.271Z,64.70
2018-04-13T12:12:17.754Z,64.70
2018-04-13T12:14:46.329Z,64.80
2018-04-13T12:17:14.705Z,65.20
2018-04-13T12:19:43.091Z,65.00
2018-04-13T12:22:11.573Z,65.00
2018-04-13T12:24:39.967Z,65.30
2018-04-13T12:27:08.382Z,64.90
2018-04-13T12:29:37.066Z,65.20
2018-04-13T12:32:05.658Z,66.00
2018-04-13T12:34:34.064Z,65.20
2018-04-13T12:37:03.289Z,65.80
2018-04-13T12:39:31.702Z,65.80
2018-04-13T12:42:00.062Z,65.20
2018-04-13T12:44:29.258Z,65.70
2018-04-13T12:46:58.402Z,65.50
2018-04-13T12:49:26.820Z,65.50
2018-04-13T12:51:55.180Z,65.80
2018-04-13T12:54:23.824Z,65.50
2018-04-13T12:56:52.248Z,65.70
2018-04-13T12:59:21.616Z,66.50
2018-04-13T13:01:50.046Z,66.40
2018-04-13T13:04:18.434Z,66.50
2018-04-13T13:06:47.633Z,66.80
2018-04-13T13:09:16.824Z,65.70
2018-04-13T13:11:45.291Z,65.70
2018-04-13T13:14:15.359Z,65.70
2018-04-13T13:16:43.753Z,65.30
2018-04-13T13:19:12.129Z,65.20
2018-04-13T13:21:40.526Z,65.10
2018-04-13T13:24:08.932Z,65.40
2018-04-13T13:26:38.090Z,65.80
2018-04-13T13:29:06.537Z,65.70
2018-04-13T13:31:35.681Z,65.10
2018-04-13T13:34:04.148Z,65.00
2018-04-13T13:36:32.538Z,65.20
2018-04-13T13:39:00.911Z,65.20
2018-04-13T13:41:29.420Z,65.20
2018-04-13T13:43:57.814Z,64.70
2018-04-13T13:46:26.959Z,66.30
2018-04-13T13:48:55.445Z,66.20
2018-04-13T13:51:23.945Z,66.10
2018-04-13T13:53:52.355Z,66.70
2018-04-13T13:56:21.530Z,66.20
2018-04-13T13:58:49.964Z,66.20
2018-04-13T14:01:18.756Z,67.00
2018-04-13T14:03:47.908Z,67.10
2018-04-13T14:06:17.102Z,67.00
2018-04-13T14:08:46.300Z,67.90
2018-04-13T14:11:15.552Z,68.50
2018-04-13T14:13:43.990Z,68.40
2018-04-13T14:16:12.506Z,67.60
2018-04-13T14:18:40.941Z,67.40
2018-04-13T14:21:10.165Z,68.10
2018-04-13T14:23:38.591Z,68.10
2018-04-13T14:26:06.962Z,68.50
2018-04-13T14:28:35.393Z,68.40
2018-04-13T14:31:03.789Z,67.60
2018-04-13T14:33:32.207Z,68.20
2018-04-13T14:36:00.664Z,68.60
2018-04-13T14:38:29.049Z,68.10
2018-04-13T14:40:57.423Z,67.90
2018-04-13T14:43:26.570Z,67.50
2018-04-13T14:45:55.016Z,67.40
2018-04-13T14:48:23.376Z,68.10
2018-04-13T14:50:51.844Z,67.60
2018-04-13T14:53:20.195Z,67.60
2018-04-13T14:55:48.598Z,68.80
2018-04-13T14:58:16.974Z,67.60
2018-04-13T15:00:45.395Z,67.80
2018-04-13T15:03:14.186Z,67.80
2018-04-13T15:05:43.358Z,67.80
2018-04-13T15:08:11.740Z,68.10
2018-04-13T15:10:40.108Z,68.50
2018-04-13T15:13:08.526Z,68.30
2018-04-13T15:15:37.671Z,67.40
2018-04-13T15:18:06.129Z,67.50
2018-04-13T15:20:34.522Z,69.20
2018-04-13T15:23:03.056Z,67.90
2018-04-13T15:25:32.250Z,68.80
2018-04-13T15:28:01.590Z,68.00
2018-04-13T15:30:30.067Z,68.00
2018-04-13T15:32:59.035Z,67.90
2018-04-13T15:35:27.484Z,67.70
2018-04-13T15:37:55.858Z,67.50
2018-04-13T15:40:24.245Z,67.60
2018-04-13T15:42:53.410Z,67.90
2018-04-13T15:45:21.815Z,67.50
2018-04-13T15:47:50.220Z,67.50
2018-04-13T15:50:19.798Z,68.10
2018-04-13T15:52:48.768Z,68.00
2018-04-13T15:55:17.146Z,67.30
2018-04-13T15:57:45.519Z,67.10
2018-04-13T16:00:13.899Z,66.60
2018-04-13T16:02:42.422Z,67.20
2018-04-13T16:05:10.867Z,67.50
2018-04-13T16:07:39.364Z,67.70
2018-04-13T16:10:07.743Z,67.60
2018-04-13T16:14:57.340Z,68.20
2018-04-13T16:17:25.766Z,68.10
2018-04-13T16:19:54.440Z,67.50
2018-04-13T16:22:22.827Z,68.10
2018-04-13T16:24:51.294Z,67.70
2018-04-13T16:27:19.713Z,67.60
2018-04-13T16:29:48.239Z,67.90
2018-04-13T16:32:17.385Z,68.20
2018-04-13T16:34:45.973Z,68.00
2018-04-13T16:37:14.439Z,68.00
2018-04-13T16:39:43.347Z,68.30
2018-04-13T16:42:11.793Z,67.00
2018-04-13T16:44:40.286Z,67.80
2018-04-13T16:47:08.678Z,67.50
2018-04-13T16:49:37.679Z,66.80
2018-04-13T16:52:06.040Z,66.80
2018-04-13T16:54:35.013Z,67.50
2018-04-13T16:57:03.506Z,66.30
2018-04-13T16:59:31.920Z,66.50
2018-04-13T17:02:00.424Z,67.20
2018-04-13T17:04:29.660Z,66.70
2018-04-13T17:06:58.139Z,66.60
2018-04-13T17:09:26.577Z,66.30
2018-04-13T17:11:55.730Z,66.10
2018-04-13T17:14:24.183Z,66.10
2018-04-13T17:16:54.807Z,66.40
2018-04-13T17:19:23.302Z,65.90
2018-04-13T17:21:51.702Z,66.10
2018-04-13T17:24:20.121Z,66.40
2018-04-13T17:26:49.164Z,67.10
2018-04-13T17:29:17.608Z,67.80
2018-04-13T17:31:45.958Z,67.60
2018-04-13T17:34:14.337Z,67.40
2018-04-13T17:36:42.738Z,67.70
2018-04-13T17:39:11.362Z,67.30
2018-04-13T17:41:39.894Z,67.40
2018-04-13T17:44:09.047Z,67.50
2018-04-13T17:46:37.452Z,67.50
2018-04-13T17:49:05.821Z,66.80
2018-04-13T17:51:34.334Z,67.20
2018-04-13T17:54:03.463Z,66.60
2018-04-13T17:56:31.882Z,66.50
2018-04-13T17:59:00.267Z,66.50
2018-04-13T18:01:29.063Z,65.90
2018-04-13T18:03:58.204Z,67.00
2018-04-13T18:06:26.617Z,66.20
2018-04-13T18:08:55.019Z,67.10
2018-04-13T18:11:24.216Z,66.10
2018-04-13T18:13:53.385Z,66.70
2018-04-13T18:16:21.862Z,66.70
2018-04-13T18:18:50.259Z,66.00
2018-04-13T18:21:19.424Z,66.80
2018-04-13T18:23:47.807Z,66.80
2018-04-13T18:26:16.214Z,67.10
2018-04-13T18:28:45.439Z,66.50
2018-04-13T18:31:14.291Z,65.70
2018-04-13T18:33:42.728Z,66.90
2018-04-13T18:36:11.850Z,67.20
2018-04-13T18:38:40.975Z,66.60
2018-04-13T18:41:10.187Z,66.60
2018-04-13T18:43:39.371Z,66.40
2018-04-13T18:46:08.549Z,66.50
2018-04-13T18:48:36.916Z,66.40
2018-04-13T18:51:05.315Z,66.80
2018-04-13T18:53:34.459Z,67.30
2018-04-13T18:56:02.901Z,66.80
2018-04-13T18:58:31.278Z,66.70
2018-04-13T19:01:00.475Z,67.30
2018-04-13T19:03:28.871Z,67.30
2018-04-13T19:05:58.018Z,67.30
2018-04-13T19:08:26.385Z,67.30
2018-04-13T19:10:54.872Z,67.20
2018-04-13T19:13:23.542Z,67.30
2018-04-13T19:15:51.954Z,67.00
2018-04-13T19:18:20.312Z,67.20
2018-04-13T19:20:48.709Z,67.30
2018-04-13T19:23:17.277Z,66.80
2018-04-13T19:25:45.702Z,67.10
2018-04-13T19:28:14.137Z,66.70
2018-04-13T19:30:42.873Z,67.10
2018-04-13T19:33:12.030Z,66.70
2018-04-13T19:35:40.420Z,66.70
2018-04-13T19:38:09.615Z,67.00
2018-04-13T19:40:37.986Z,66.90
2018-04-13T19:43:06.406Z,67.40
2018-04-13T19:45:34.831Z,67.50
2018-04-13T19:48:08.784Z,67.50
2018-04-13T19:50:37.203Z,67.30
2018-04-13T19:53:05.380Z,67.30
2018-04-13T19:55:34.776Z,67.10
2018-04-13T19:58:03.233Z,67.10
2018-04-13T20:00:31.657Z,67.10
2018-04-13T20:03:00.077Z,67.10
2018-04-13T20:05:29.237Z,67.10
2018-04-13T20:07:58.299Z,67.10
2018-04-13T20:10:26.670Z,66.80
2018-04-13T20:12:55.065Z,66.60
2018-04-13T20:15:25.410Z,65.90
2018-04-13T20:17:53.803Z,66.20
2018-04-13T20:20:23.009Z,66.90
2018-04-13T20:22:52.158Z,66.70
2018-04-13T20:25:20.604Z,66.50
2018-04-13T20:27:50.040Z,66.70
2018-04-13T20:30:18.422Z,66.70
2018-04-13T20:32:46.826Z,67.10
2018-04-13T20:35:17.131Z,66.80
2018-04-13T20:37:45.548Z,66.70
2018-04-13T20:40:14.700Z,66.70
2018-04-13T20:42:43.163Z,66.70
2018-04-13T20:45:11.547Z,66.70
2018-04-13T20:47:39.975Z,66.50
2018-04-13T20:50:09.119Z,66.90
2018-04-13T20:52:37.855Z,66.80
2018-04-13T20:55:06.998Z,66.50
2018-04-13T20:57:35.724Z,66.50
2018-04-13T21:00:04.092Z,66.20
2018-04-13T21:02:32.800Z,65.80
2018-04-13T21:05:01.819Z,66.00
2018-04-13T21:07:30.565Z,65.70
2018-04-13T21:09:58.956Z,65.30
2018-04-13T21:12:28.118Z,64.70
2018-04-13T21:14:56.697Z,64.70
2018-04-13T21:17:25.122Z,64.60
2018-04-13T21:19:54.338Z,64.40
2018-04-13T21:22:22.711Z,64.40
2018-04-13T21:24:51.280Z,64.70
2018-04-13T21:27:19.676Z,64.70
2018-04-13T21:29:48.043Z,64.40
2018-04-13T21:32:16.557Z,64.60
2018-04-13T21:34:45.016Z,64.00
2018-04-13T21:37:13.638Z,64.40
2018-04-13T21:39:42.044Z,64.10
2018-04-13T21:42:10.447Z,64.10
2018-04-13T21:44:39.629Z,63.70
2018-04-13T21:47:11.883Z,64.20
2018-04-13T21:49:40.266Z,64.20
2018-04-13T21:52:09.412Z,63.70
2018-04-13T21:54:37.944Z,63.60
2018-04-13T21:57:07.118Z,63.60
2018-04-13T21:59:35.823Z,63.50
2018-04-13T22:02:04.964Z,64.00
2018-04-13T22:04:33.605Z,63.90
2018-04-13T22:07:02.047Z,64.00
2018-04-13T22:09:30.430Z,64.00
2018-04-13T22:11:58.790Z,63.70
2018-04-13T22:14:51.842Z,63.90
2018-04-13T22:17:20.219Z,63.10
2018-04-13T22:19:49.632Z,63.40
2018-04-13T22:22:18.026Z,63.30
2018-04-13T22:24:46.424Z,63.70
2018-04-13T22:27:14.824Z,63.60
2018-04-13T22:29:44.038Z,63.80
2018-04-13T22:32:12.405Z,63.70
2018-04-13T22:34:40.889Z,63.60
2018-04-13T22:37:09.705Z,63.50
2018-04-13T22:39:38.105Z,63.70
2018-04-13T22:42:06.470Z,63.70
2018-04-13T22:44:34.983Z,63.20
2018-04-13T22:47:03.377Z,62.70
2018-04-13T22:49:32.818Z,62.70
2018-04-13T22:52:01.209Z,62.70
2018-04-13T22:54:29.677Z,62.50
2018-04-13T22:56:58.182Z,63.00
2018-04-13T22:59:26.766Z,63.30
2018-04-13T23:01:55.153Z,63.20
2018-04-13T23:04:23.536Z,62.90
2018-04-13T23:06:51.940Z,63.20
2018-04-13T23:09:20.343Z,63.20
2018-04-13T23:11:48.853Z,62.70
2018-04-13T23:14:17.215Z,62.90
2018-04-13T23:16:45.597Z,62.90
2018-04-13T23:19:14.050Z,63.10
2018-04-13T23:21:42.441Z,63.30
2018-04-13T23:24:11.038Z,63.60
2018-04-13T23:26:39.422Z,63.40
2018-04-13T23:29:07.785Z,63.60
2018-04-13T23:31:36.973Z,63.20
2018-04-13T23:34:05.915Z,63.20
2018-04-13T23:36:34.301Z,62.90
2018-04-13T23:39:02.672Z,62.90
2018-04-13T23:41:31.050Z,62.50
2018-04-13T23:43:59.582Z,62.90
2018-04-13T23:46:29.711Z,62.90
2018-04-13T23:48:58.191Z,63.40
2018-04-13T23:51:26.547Z,62.80
2018-04-13T23:53:55.212Z,61.90
2018-04-13T23:56:24.371Z,62.40
2018-04-13T23:58:52.764Z,62.40
